createdAt,value
2022-08-26T00:00:49.145Z,67
2022-08-26T00:10:51.081Z,67
2022-08-26T00:20:53.176Z,68
2022-08-26T00:30:55.628Z,68
2022-08-26T00:40:57.617Z,68
2022-08-26T00:50:59.792Z,68
2022-08-26T01:01:01.574Z,69
2022-08-26T01:11:03.880Z,70
2022-08-26T01:21:06.186Z,71
2022-08-26T01:31:08.586Z,70
2022-08-26T01:41:11.687Z,71
2022-08-26T01:51:12.002Z,71
2022-08-26T02:01:14.137Z,71
2022-08-26T02:11:16.760Z,72
2022-08-26T02:21:18.817Z,73
2022-08-26T02:31:21.418Z,73
2022-08-26T02:41:23.643Z,73
2022-08-26T02:51:26.163Z,73
2022-08-26T03:01:28.381Z,74
2022-08-26T03:11:33.103Z,74
2022-08-26T03:21:32.039Z,75
2022-08-26T03:31:33.906Z,75
2022-08-26T03:41:35.816Z,76
2022-08-26T03:51:38.788Z,77
2022-08-26T04:01:40.055Z,78
2022-08-26T04:11:42.156Z,80
2022-08-26T04:21:44.434Z,81
2022-08-26T04:31:46.758Z,83
2022-08-26T04:41:49.118Z,84
2022-08-26T04:51:50.845Z,86
2022-08-26T05:01:52.883Z,87
2022-08-26T05:11:55.313Z,88
2022-08-26T05:21:57.907Z,90
2022-08-26T05:52:04.647Z,92
2022-08-26T06:02:06.685Z,92
2022-08-26T06:12:09.095Z,91
2022-08-26T06:22:11.378Z,91
2022-08-26T06:32:13.062Z,90
2022-08-26T06:42:15.460Z,89
2022-08-26T06:52:21.270Z,88
2022-08-26T07:02:19.905Z,87
2022-08-26T07:12:22.481Z,86
2022-08-26T07:22:24.464Z,85
2022-08-26T07:32:26.693Z,84
2022-08-26T07:42:28.562Z,84
2022-08-26T07:52:30.813Z,83
2022-08-26T08:02:33.360Z,82
2022-08-26T08:12:35.946Z,81
2022-08-26T08:22:37.987Z,81
2022-08-26T08:32:40.566Z,80
2022-08-26T08:42:42.613Z,79
2022-08-26T08:52:44.750Z,79
2022-08-26T09:02:46.916Z,79
2022-08-26T09:12:49.337Z,79
2022-08-26T09:22:51.600Z,78
2022-08-26T09:42:55.490Z,77
2022-08-26T09:52:57.458Z,77
2022-08-26T10:13:02.583Z,76
2022-08-26T10:23:04.413Z,75
2022-08-26T10:25:42.797Z,75
2022-08-26T10:33:17.897Z,74
2022-08-26T10:43:18.006Z,74
2022-08-26T10:53:25.089Z,73
2022-08-26T11:03:22.510Z,73
2022-08-26T11:13:24.245Z,72
2022-08-26T11:23:26.230Z,72
2022-08-26T11:33:28.110Z,71
2022-08-26T11:43:30.393Z,70
2022-08-26T11:53:32.261Z,70
2022-08-26T12:03:34.649Z,69
2022-08-26T12:13:37.163Z,69
2022-08-26T12:23:39.355Z,68
2022-08-26T12:33:41.880Z,68
2022-08-26T12:43:44.126Z,68
2022-08-26T12:53:45.848Z,67
2022-08-26T13:03:48.468Z,67
2022-08-26T13:13:50.692Z,67
2022-08-26T13:23:52.969Z,67
2022-08-26T13:33:54.711Z,67
2022-08-26T13:43:56.658Z,67
2022-08-26T13:53:59.007Z,66
2022-08-26T14:04:01.240Z,66
2022-08-26T14:24:05.536Z,66
2022-08-26T14:34:07.378Z,66
2022-08-26T14:44:09.886Z,67
2022-08-26T14:54:12.059Z,67
2022-08-26T15:04:14.720Z,67
2022-08-26T15:14:19.731Z,68
2022-08-26T15:24:18.703Z,68
2022-08-26T15:34:21.192Z,68
2022-08-26T15:44:23.444Z,68
2022-08-26T15:54:25.150Z,69
2022-08-26T16:04:26.855Z,70
2022-08-26T16:14:29.092Z,70
2022-08-26T16:34:33.460Z,72
2022-08-26T16:44:35.985Z,72
2022-08-26T16:54:37.998Z,73
2022-08-26T17:04:40.609Z,73
2022-08-26T17:14:43.059Z,73
2022-08-26T17:24:44.871Z,73
2022-08-26T17:34:47.515Z,73
2022-08-26T17:44:49.945Z,74
2022-08-26T17:54:52.173Z,74
2022-08-26T18:04:54.544Z,74
2022-08-26T18:14:56.853Z,74
2022-08-26T18:24:59.441Z,74
2022-08-26T18:35:00.922Z,74
2022-08-26T18:55:04.899Z,74
2022-08-26T19:05:07.006Z,74
2022-08-26T19:15:09.509Z,75
2022-08-26T19:25:11.937Z,75
2022-08-26T19:35:13.937Z,76
2022-08-26T19:45:18.333Z,76
2022-08-26T19:55:18.350Z,77
2022-08-26T20:05:20.951Z,77
2022-08-26T20:15:22.970Z,78
2022-08-26T20:25:24.918Z,79
2022-08-26T20:35:27.019Z,79
2022-08-26T20:55:31.524Z,81
2022-08-26T21:05:33.537Z,81
2022-08-26T21:15:35.984Z,82
2022-08-26T21:35:40.282Z,84
2022-08-26T21:45:42.588Z,86
2022-08-26T21:55:44.918Z,88
2022-08-26T22:05:46.986Z,89
2022-08-26T22:15:49.276Z,91
2022-08-26T22:25:51.573Z,92
2022-08-26T22:35:54.181Z,94
2022-08-26T22:55:58.282Z,96
2022-08-26T23:06:00.064Z,97
2022-08-26T23:16:01.834Z,98
2022-08-26T23:26:06.083Z,98
2022-08-26T23:36:06.399Z,98
2022-08-26T23:56:10.599Z,98
